Terminal Aerodrome Forecast
Issued by NWS

Home | Current Version | Previous Version | Graphics & Text | Print | Product List | Glossary On
Versions: 1 2 3 4 5 6 7 8 9 10 11 12 13 14 15 16 17 18 19 20 21 22 23 24 25 26 27 28
000
FTUS45 KGGW 310800 AAA
TAFGDV
TAF AMD
KGDV 310841Z 3109/0106 VRB05KT P6SM BKN120
      TEMPO 3109/3113 1SM BR OVC001
     FM311800 29008KT P6SM -SHRA BKN080
     FM312100 30009KT 6SM -TSRA BKN050CB BKN100
     FM010300 32008KT P6SM VCTS BKN060CB
      AMD LTD TO CLD VIS AND WIND=

USA.gov is the U.S. government's official web portal to all federal, state and local government web resources and services.